createdAt,value
2022-08-19T00:00:23.497Z,99854.59
2022-08-19T00:03:26.432Z,99866.09
2022-08-19T00:06:29.976Z,99851.81
2022-08-19T00:09:33.000Z,99842.66
2022-08-19T00:12:36.596Z,99849.94
2022-08-19T00:15:46.865Z,99839.09
2022-08-19T00:18:49.816Z,99844.22
2022-08-19T00:21:53.575Z,99848.09
2022-08-19T00:24:56.273Z,99838.78
2022-08-19T00:28:00.467Z,99839.41
2022-08-19T00:31:07.048Z,99846.06
2022-08-19T00:34:11.513Z,99835.22
2022-08-19T00:37:14.278Z,99839.09
2022-08-19T00:40:19.287Z,99845.59
2022-08-19T00:43:25.003Z,99835.22
2022-08-19T00:46:28.979Z,99833.75
2022-08-19T00:49:43.048Z,99834.97
2022-08-19T00:52:50.057Z,99832.78
2022-08-19T00:55:56.094Z,99828.47
2022-08-19T00:59:02.855Z,99814.28
2022-08-19T01:02:06.100Z,99820.22
2022-08-19T01:05:16.596Z,99809.84
2022-08-19T01:08:21.097Z,99810.47
2022-08-19T01:11:24.528Z,99811.22
2022-08-19T01:14:27.259Z,99815.56
2022-08-19T01:17:30.285Z,99798.53
2022-08-19T01:20:34.096Z,99801.16
2022-08-19T01:23:46.396Z,99810.03
2022-08-19T01:26:49.475Z,99813.41
2022-08-19T01:29:52.533Z,99810.47
2022-08-19T01:32:56.058Z,99812.97
2022-08-19T01:36:28.013Z,99820.72
2022-08-19T01:39:30.697Z,99820.72
2022-08-19T01:42:33.651Z,99815.72
2022-08-19T01:45:41.144Z,99821.59
2022-08-19T01:48:45.203Z,99802.31
2022-08-19T01:51:49.142Z,99817.56
2022-08-19T01:54:52.097Z,99821.88
2022-08-19T01:57:58.150Z,99808.84
2022-08-19T02:01:01.091Z,99794.31
2022-08-19T02:04:04.138Z,99805.47
2022-08-19T02:07:09.122Z,99806.56
2022-08-19T02:10:19.551Z,99803.59
2022-08-19T02:13:22.775Z,99793.97
2022-08-19T02:16:29.855Z,99793.63
2022-08-19T02:19:33.649Z,99784.06
2022-08-19T02:22:36.864Z,99768.38
2022-08-19T02:25:39.761Z,99778.78
2022-08-19T02:28:43.600Z,99769.88
2022-08-19T02:31:46.557Z,99766.00
2022-08-19T02:34:50.094Z,99764.47
2022-08-19T02:38:11.353Z,99776.41
2022-08-19T02:41:27.048Z,99774.72
2022-08-19T02:44:32.032Z,99775.81
2022-08-19T02:47:35.351Z,99771.94
2022-08-19T02:50:41.434Z,99785.88
2022-08-19T02:53:57.632Z,99763.00
2022-08-19T02:57:00.275Z,99769.28
2022-08-19T03:00:06.983Z,99778.13
2022-08-19T03:03:09.642Z,99791.50
2022-08-19T03:06:16.359Z,99794.72
2022-08-19T03:09:20.900Z,99804.63
2022-08-19T03:12:23.869Z,99801.97
2022-08-19T03:15:27.144Z,99798.66
2022-08-19T03:18:30.168Z,99799.66
2022-08-19T03:21:34.711Z,99785.94
2022-08-19T03:24:38.805Z,99798.47
2022-08-19T03:27:42.220Z,99797.59
2022-08-19T03:31:00.152Z,99796.69
2022-08-19T03:34:04.383Z,99797.28
2022-08-19T03:37:17.709Z,99802.41
2022-08-19T03:40:20.712Z,99808.00
2022-08-19T03:43:23.728Z,99814.50
2022-08-19T03:46:32.714Z,99812.13
2022-08-19T03:49:36.845Z,99817.63
2022-08-19T03:52:40.460Z,99801.41
2022-08-19T03:55:48.445Z,99813.28
2022-08-19T03:58:51.115Z,99813.78
2022-08-19T04:01:57.196Z,99813.94
2022-08-19T04:05:00.136Z,99812.19
2022-08-19T04:08:03.008Z,99824.75
2022-08-19T04:11:18.405Z,99808.63
2022-08-19T04:14:25.221Z,99836.41
2022-08-19T04:17:28.187Z,99829.94
2022-08-19T04:20:31.174Z,99828.72
2022-08-19T04:23:36.975Z,99832.47
2022-08-19T04:26:48.775Z,99832.19
2022-08-19T04:29:51.767Z,99829.16
2022-08-19T04:32:54.606Z,99817.56
2022-08-19T04:35:59.283Z,99832.53
2022-08-19T04:39:06.687Z,99842.31
2022-08-19T04:42:30.699Z,99829.78
2022-08-19T04:45:39.669Z,99838.03
2022-08-19T04:48:49.399Z,99858.84
2022-08-19T04:51:55.275Z,99855.00
2022-08-19T04:54:59.062Z,99862.03
2022-08-19T04:58:03.370Z,99845.59
2022-08-19T05:01:06.552Z,99865.16
2022-08-19T05:04:09.417Z,99866.69
2022-08-19T05:07:12.585Z,99858.03
2022-08-19T05:10:15.224Z,99847.94
2022-08-19T05:13:20.270Z,99878.66
2022-08-19T05:16:24.939Z,99865.63
2022-08-19T05:19:46.619Z,99873.84
2022-08-19T05:22:49.351Z,99872.72
2022-08-19T05:25:53.320Z,99882.03
2022-08-19T05:28:56.485Z,99859.03
2022-08-19T05:32:00.506Z,99877.13
2022-08-19T05:35:05.255Z,99879.44
2022-08-19T05:38:09.248Z,99865.31
2022-08-19T05:41:13.955Z,99887.16
2022-08-19T05:44:18.102Z,99892.72
2022-08-19T05:47:21.169Z,99896.50
2022-08-19T05:50:24.175Z,99888.44
2022-08-19T05:53:26.860Z,99879.66
2022-08-19T05:56:31.711Z,99883.94
2022-08-19T05:59:36.410Z,99878.84
2022-08-19T06:02:42.708Z,99887.69
2022-08-19T06:05:51.695Z,99888.28
2022-08-19T06:08:54.914Z,99881.72
2022-08-19T06:12:00.868Z,99878.06
2022-08-19T06:15:08.128Z,99890.03
2022-08-19T06:18:11.057Z,99883.25
2022-08-19T06:21:13.688Z,99888.56
2022-08-19T06:24:19.535Z,99888.38
2022-08-19T06:27:22.830Z,99888.38
2022-08-19T06:30:26.199Z,99893.50
2022-08-19T06:33:29.410Z,99884.75
2022-08-19T06:36:39.740Z,99891.09
2022-08-19T06:39:44.636Z,99873.59
2022-08-19T06:42:54.689Z,99871.13
2022-08-19T06:45:59.952Z,99873.31
2022-08-19T06:49:05.168Z,99880.34
2022-08-19T06:52:09.354Z,99884.84
2022-08-19T06:55:17.063Z,99889.38
2022-08-19T06:58:21.667Z,99904.66
2022-08-19T07:01:24.766Z,99893.94
2022-08-19T07:04:32.704Z,99895.28
2022-08-19T07:07:36.939Z,99893.63
2022-08-19T07:10:44.356Z,99889.59
2022-08-19T07:13:49.563Z,99886.22
2022-08-19T07:16:58.015Z,99889.97
2022-08-19T07:20:04.994Z,99892.72
2022-08-19T07:23:15.957Z,99881.13
2022-08-19T07:26:28.021Z,99878.31
2022-08-19T07:29:34.012Z,99881.28
2022-08-19T07:32:38.489Z,99884.22
2022-08-19T07:35:41.886Z,99885.88
2022-08-19T07:38:48.433Z,99879.03
2022-08-19T07:41:51.690Z,99884.94
2022-08-19T07:44:54.729Z,99883.72
2022-08-19T07:47:57.352Z,99878.37
2022-08-19T07:51:03.072Z,99884.03
2022-08-19T07:54:05.813Z,99878.22
2022-08-19T07:57:09.510Z,99871.87
2022-08-19T08:00:13.503Z,99877.22
2022-08-19T08:03:20.152Z,99876.19
2022-08-19T08:06:41.982Z,99883.94
2022-08-19T08:09:49.654Z,99882.16
2022-08-19T08:13:10.265Z,99871.13
2022-08-19T08:16:14.533Z,99846.97
2022-08-19T08:19:25.414Z,99853.63
2022-08-19T08:22:47.433Z,99868.50
2022-08-19T08:25:50.593Z,99867.44
2022-08-19T08:28:54.559Z,99882.78
2022-08-19T08:31:59.802Z,99855.28
2022-08-19T08:35:04.991Z,99878.00
2022-08-19T08:38:07.658Z,99870.19
2022-08-19T08:41:23.562Z,99866.75
2022-08-19T08:45:11.865Z,99872.28
2022-08-19T08:48:24.327Z,99863.09
2022-08-19T08:51:35.288Z,99863.47
2022-08-19T08:54:48.946Z,99861.47
2022-08-19T08:58:15.051Z,99867.59
2022-08-19T09:01:18.299Z,99862.69
2022-08-19T09:04:21.200Z,99867.69
2022-08-19T09:08:01.594Z,99860.81
2022-08-19T09:11:10.035Z,99853.16
2022-08-19T09:14:49.831Z,99853.47
2022-08-19T09:17:53.855Z,99849.31
2022-08-19T09:20:57.829Z,99851.16
2022-08-19T09:24:00.914Z,99854.91
2022-08-19T09:27:18.585Z,99841.87
2022-08-19T09:30:25.334Z,99843.84
2022-08-19T09:33:28.283Z,99850.25
2022-08-19T09:36:35.383Z,99841.34
2022-08-19T09:39:39.602Z,99836.34
2022-08-19T09:42:49.573Z,99833.28
2022-08-19T09:45:53.756Z,99828.06
2022-08-19T09:49:06.178Z,99838.25
2022-08-19T09:52:11.490Z,99840.94
2022-08-19T09:55:17.219Z,99833.53
2022-08-19T09:58:26.043Z,99817.13
2022-08-19T10:01:31.290Z,99823.97
2022-08-19T10:04:52.892Z,99831.41
2022-08-19T10:07:56.795Z,99824.47
2022-08-19T10:11:27.183Z,99816.38
2022-08-19T10:14:24.384Z,99806.03
2022-08-19T10:17:31.721Z,99805.16
2022-08-19T10:20:39.196Z,99790.84
2022-08-19T10:23:46.184Z,99775.81
2022-08-19T10:26:57.381Z,99766.25
2022-08-19T10:30:02.475Z,99775.56
2022-08-19T10:33:11.235Z,99782.66
2022-08-19T10:36:18.949Z,99788.41
2022-08-19T10:39:22.827Z,99791.34
2022-08-19T10:42:26.584Z,99786.34
2022-08-19T10:45:29.185Z,99783.12
2022-08-19T10:48:37.797Z,99792.69
2022-08-19T10:52:01.269Z,99795.47
2022-08-19T10:55:25.717Z,99794.50
2022-08-19T10:58:32.200Z,99791.66
2022-08-19T11:01:35.713Z,99785.59
2022-08-19T11:04:40.731Z,99791.69
2022-08-19T11:07:45.734Z,99785.09
2022-08-19T11:10:50.404Z,99798.44
2022-08-19T11:13:54.072Z,99793.56
2022-08-19T11:16:58.019Z,99796.31
2022-08-19T11:20:04.630Z,99769.12
2022-08-19T11:23:07.488Z,99782.03
2022-08-19T11:26:10.917Z,99775.13
2022-08-19T11:29:14.765Z,99772.50
2022-08-19T11:32:17.737Z,99773.53
2022-08-19T11:35:21.074Z,99770.13
2022-08-19T11:38:24.097Z,99756.56
2022-08-19T11:41:27.514Z,99760.41
2022-08-19T11:44:31.454Z,99764.47
2022-08-19T11:47:34.117Z,99775.34
2022-08-19T11:50:37.346Z,99761.59
2022-08-19T11:53:40.195Z,99758.53
2022-08-19T11:56:43.619Z,99764.84
2022-08-19T11:59:52.252Z,99775.13
2022-08-19T12:02:55.832Z,99763.88
2022-08-19T12:05:58.779Z,99761.00
2022-08-19T12:09:06.572Z,99766.13
2022-08-19T12:12:10.268Z,99765.03
2022-08-19T12:15:15.275Z,99758.94
2022-08-19T12:18:18.276Z,99751.34
2022-08-19T12:21:26.118Z,99754.19
2022-08-19T12:24:32.637Z,99741.59
2022-08-19T12:27:40.220Z,99730.72
2022-08-19T12:30:45.328Z,99729.94
2022-08-19T12:33:48.574Z,99733.97
2022-08-19T12:36:51.480Z,99731.03
2022-08-19T12:39:54.290Z,99726.31
2022-08-19T12:42:57.331Z,99730.69
2022-08-19T12:46:00.136Z,99729.53
2022-08-19T12:49:05.155Z,99716.97
2022-08-19T12:52:22.978Z,99722.06
2022-08-19T12:55:29.131Z,99717.66
2022-08-19T12:58:32.244Z,99724.38
2022-08-19T13:01:35.413Z,99721.19
2022-08-19T13:04:41.597Z,99713.38
2022-08-19T13:07:44.975Z,99705.94
2022-08-19T13:10:47.805Z,99697.50
2022-08-19T13:13:52.252Z,99708.47
2022-08-19T13:16:54.919Z,99703.56
2022-08-19T13:19:58.157Z,99700.69
2022-08-19T13:23:00.891Z,99690.06
2022-08-19T13:26:07.445Z,99697.13
2022-08-19T13:29:28.596Z,99693.25
2022-08-19T13:32:50.211Z,99706.44
2022-08-19T13:36:01.395Z,99701.66
2022-08-19T13:39:05.689Z,99710.06
2022-08-19T13:42:09.435Z,99692.22
2022-08-19T13:45:12.756Z,99701.25
2022-08-19T13:48:16.528Z,99689.47
2022-08-19T13:51:19.871Z,99687.66
2022-08-19T13:54:22.751Z,99688.00
2022-08-19T13:57:25.752Z,99679.06
2022-08-19T14:00:34.575Z,99669.34
2022-08-19T14:03:38.467Z,99669.31
2022-08-19T14:06:41.169Z,99671.19
2022-08-19T14:09:44.265Z,99663.72
2022-08-19T14:12:49.403Z,99662.97
2022-08-19T14:15:53.191Z,99660.97
2022-08-19T14:18:56.117Z,99656.16
2022-08-19T14:21:59.049Z,99651.22
2022-08-19T14:25:02.185Z,99652.97
2022-08-19T14:28:05.528Z,99635.78
2022-08-19T14:31:09.237Z,99649.50
2022-08-19T14:34:13.691Z,99639.81
2022-08-19T14:37:16.308Z,99647.59
2022-08-19T14:40:22.182Z,99651.22
2022-08-19T14:43:24.788Z,99667.03
2022-08-19T14:46:29.767Z,99660.16
2022-08-19T14:49:35.285Z,99659.22
2022-08-19T14:52:48.831Z,99646.56
2022-08-19T14:55:51.596Z,99639.41
2022-08-19T14:59:00.363Z,99667.13
2022-08-19T15:02:33.619Z,99678.38
2022-08-19T15:05:28.016Z,99694.53
2022-08-19T15:08:32.315Z,99694.53
2022-08-19T15:11:35.459Z,99696.78
2022-08-19T15:14:38.733Z,99719.28
2022-08-19T15:17:46.665Z,99720.38
2022-08-19T15:20:50.610Z,99708.78
2022-08-19T15:23:56.870Z,99717.56
2022-08-19T15:26:59.963Z,99716.00
2022-08-19T15:30:03.987Z,99726.03
2022-08-19T15:33:07.618Z,99702.75
2022-08-19T15:36:12.228Z,99725.41
2022-08-19T15:39:19.902Z,99728.69
2022-08-19T15:42:29.598Z,99717.03
2022-08-19T15:45:33.095Z,99699.00
2022-08-19T15:48:37.503Z,99731.00
2022-08-19T15:51:43.039Z,99725.38
2022-08-19T15:54:45.948Z,99720.69
2022-08-19T15:58:07.180Z,99719.06
2022-08-19T16:01:35.427Z,99707.50
2022-08-19T16:05:02.028Z,99691.84
2022-08-19T16:08:05.271Z,99687.72
2022-08-19T16:11:08.208Z,99671.44
2022-08-19T16:14:10.995Z,99661.44
2022-08-19T16:17:14.184Z,99656.94
2022-08-19T16:20:16.997Z,99667.03
2022-08-19T16:23:20.247Z,99664.13
2022-08-19T16:26:23.344Z,99661.03
2022-08-19T16:29:34.719Z,99673.06
2022-08-19T16:32:45.238Z,99659.50
2022-08-19T16:35:52.014Z,99675.91
2022-08-19T16:39:12.242Z,99689.25
2022-08-19T16:42:15.686Z,99697.28
2022-08-19T16:45:19.544Z,99688.37
2022-08-19T16:48:30.364Z,99678.47
2022-08-19T16:51:36.398Z,99690.66
2022-08-19T16:54:39.476Z,99682.00
2022-08-19T16:57:42.271Z,99670.50
2022-08-19T17:00:46.738Z,99687.25
2022-08-19T17:03:52.042Z,99690.34
2022-08-19T17:06:55.072Z,99682.63
2022-08-19T17:09:57.881Z,99685.59
2022-08-19T17:13:01.523Z,99685.41
2022-08-19T17:16:05.815Z,99684.16
2022-08-19T17:19:08.872Z,99675.97
2022-08-19T17:22:13.071Z,99690.81
2022-08-19T17:25:16.060Z,99701.69
2022-08-19T17:28:22.549Z,99718.13
2022-08-19T17:31:28.449Z,99724.59
2022-08-19T17:34:31.051Z,99740.53
2022-08-19T17:37:36.705Z,99746.44
2022-08-19T17:40:42.457Z,99750.03
2022-08-19T17:43:45.752Z,99763.41
2022-08-19T17:46:48.419Z,99760.88
2022-08-19T17:49:52.177Z,99762.38
2022-08-19T17:52:55.722Z,99769.06
2022-08-19T17:55:59.828Z,99764.19
2022-08-19T17:59:02.495Z,99770.91
2022-08-19T18:02:10.212Z,99776.56
2022-08-19T18:05:14.168Z,99788.16
2022-08-19T18:08:17.337Z,99802.78
2022-08-19T18:11:20.676Z,99807.19
2022-08-19T18:14:32.159Z,99825.91
2022-08-19T18:40:08.517Z,100076.78
2022-08-19T18:43:23.797Z,100065.91
2022-08-19T18:46:44.960Z,100058.56
2022-08-19T18:49:51.186Z,100029.50
2022-08-19T18:52:53.812Z,100013.94
2022-08-19T18:55:57.627Z,100006.78
2022-08-19T18:59:01.510Z,100007.41
2022-08-19T19:02:05.508Z,100019.81
2022-08-19T19:05:08.204Z,100018.31
2022-08-19T19:08:13.356Z,99987.53
2022-08-19T19:11:32.574Z,99998.44
2022-08-19T19:14:49.003Z,99983.16
2022-08-19T19:17:52.412Z,99974.69
2022-08-19T19:20:56.371Z,99972.00
2022-08-19T19:37:14.728Z,99945.38
2022-08-19T19:40:22.343Z,99945.81
2022-08-19T19:43:25.081Z,99947.59
2022-08-19T19:46:28.609Z,99946.66
2022-08-19T19:49:32.303Z,99935.91
2022-08-19T19:52:35.331Z,99901.31
2022-08-19T19:55:37.965Z,99883.47
2022-08-19T19:58:41.708Z,99881.31
2022-08-19T20:01:47.001Z,99887.50
2022-08-19T20:04:51.217Z,99921.38
2022-08-19T20:08:13.422Z,99872.63
2022-08-19T20:11:55.092Z,99876.03
2022-08-19T20:14:57.748Z,99888.78
2022-08-19T20:18:04.648Z,99874.00
2022-08-19T20:21:07.345Z,99881.31
2022-08-19T20:24:23.754Z,99895.28
2022-08-19T20:27:26.370Z,99882.88
2022-08-19T20:30:33.409Z,99877.44
2022-08-19T20:33:36.296Z,99876.34
2022-08-19T20:36:39.216Z,99903.22
2022-08-19T20:39:45.227Z,99876.03
2022-08-19T20:42:48.321Z,99891.53
2022-08-19T20:45:51.261Z,99880.06
2022-08-19T20:48:54.301Z,99897.94
2022-08-19T20:51:57.099Z,99900.25
2022-08-19T20:55:01.657Z,99889.06
2022-08-19T20:58:04.556Z,99879.91
2022-08-19T21:01:10.589Z,99880.53
2022-08-19T21:04:13.420Z,99892.66
2022-08-19T21:07:16.848Z,99897.91
2022-08-19T21:10:19.576Z,99869.34
2022-08-19T21:13:23.953Z,99883.62
2022-08-19T21:16:26.693Z,99904.91
2022-08-19T21:19:29.647Z,99895.25
2022-08-19T21:22:32.338Z,99906.16
2022-08-19T21:25:35.316Z,99903.97
2022-08-19T21:28:38.487Z,99904.31
2022-08-19T21:31:41.780Z,99886.56
2022-08-19T21:34:46.950Z,99859.56
2022-08-19T21:37:53.187Z,99838.12
2022-08-19T21:40:56.509Z,99853.97
2022-08-19T21:43:59.743Z,99856.44
2022-08-19T21:47:04.589Z,99839.06
2022-08-19T21:50:08.409Z,99831.00
2022-08-19T21:53:14.005Z,99823.09
2022-08-19T21:56:20.604Z,99822.44
2022-08-19T21:59:23.673Z,99836.38
2022-08-19T22:02:28.337Z,99830.09
2022-08-19T22:05:33.295Z,99864.37
2022-08-19T22:08:36.531Z,99863.31
2022-08-19T22:11:39.931Z,99865.00
2022-08-19T22:14:42.572Z,99839.69
2022-08-19T22:17:45.515Z,99824.50
2022-08-19T22:20:48.629Z,99825.72
2022-08-19T22:23:51.534Z,99811.91
2022-08-19T22:26:54.212Z,99822.16
2022-08-19T22:29:57.101Z,99819.84
2022-08-19T22:33:01.396Z,99813.62
2022-08-19T22:36:07.731Z,99819.84
2022-08-19T22:39:10.345Z,99823.72
2022-08-19T22:42:13.764Z,99809.59
2022-08-19T22:45:17.672Z,99793.63
2022-08-19T22:48:24.318Z,99786.31
2022-08-19T22:51:45.525Z,99801.38
2022-08-19T22:54:56.844Z,99786.31
2022-08-19T22:57:59.508Z,99766.91
2022-08-19T23:01:03.462Z,99761.19
2022-08-19T23:04:06.097Z,99750.94
2022-08-19T23:07:09.385Z,99728.09
2022-08-19T23:10:12.552Z,99726.41
2022-08-19T23:13:17.339Z,99727.66
2022-08-19T23:16:20.016Z,99749.31
2022-08-19T23:19:23.878Z,99747.91
2022-08-19T23:22:26.616Z,99729.25
2022-08-19T23:25:32.347Z,99727.59
2022-08-19T23:28:53.719Z,99704.47
2022-08-19T23:31:56.604Z,99692.09
2022-08-19T23:34:59.765Z,99702.75
2022-08-19T23:38:05.182Z,99709.75
2022-08-19T23:41:09.722Z,99708.03
2022-08-19T23:44:14.819Z,99702.00
2022-08-19T23:47:17.742Z,99692.22
2022-08-19T23:50:24.004Z,99697.53
2022-08-19T23:53:27.571Z,99685.75
2022-08-19T23:56:30.479Z,99680.31
2022-08-19T23:59:33.333Z,99668.69
